createdAt,value
2022-10-14T00:01:11.845Z,56.46
2022-10-14T00:03:39.306Z,56.55
2022-10-14T00:06:08.044Z,56.09
2022-10-14T00:08:34.845Z,56.08
2022-10-14T00:11:20.769Z,56.15
2022-10-14T00:13:57.998Z,56.40
2022-10-14T00:16:29.361Z,56.38
2022-10-14T00:18:57.002Z,56.51
2022-10-14T00:21:26.017Z,56.38
2022-10-14T00:23:52.751Z,56.43
2022-10-14T00:26:25.619Z,56.18
2022-10-14T00:28:52.576Z,56.45
2022-10-14T00:31:20.180Z,56.08
2022-10-14T00:33:48.210Z,56.44
2022-10-14T00:36:17.469Z,56.05
2022-10-14T00:38:45.711Z,56.30
2022-10-14T00:41:18.948Z,56.39
2022-10-14T00:44:15.573Z,56.43
2022-10-14T00:46:44.247Z,55.92
2022-10-14T00:49:29.123Z,56.21
2022-10-14T00:52:02.839Z,56.30
2022-10-14T00:54:34.973Z,56.06
2022-10-14T00:57:02.371Z,55.93
2022-10-14T00:59:29.424Z,56.33
2022-10-14T01:01:56.141Z,56.01
2022-10-14T01:04:24.897Z,55.82
2022-10-14T01:07:28.949Z,56.16
2022-10-14T01:10:22.064Z,55.91
2022-10-14T01:13:18.120Z,55.94
2022-10-14T01:16:03.577Z,55.96
2022-10-14T01:19:01.166Z,55.91
2022-10-14T01:21:37.868Z,55.88
2022-10-14T01:24:37.225Z,56.34
2022-10-14T01:27:17.447Z,55.99
2022-10-14T01:30:06.154Z,56.29
2022-10-14T01:32:51.160Z,56.40
2022-10-14T01:35:24.225Z,56.05
2022-10-14T01:38:08.723Z,56.36
2022-10-14T01:40:58.497Z,56.38
2022-10-14T01:43:27.688Z,56.11
2022-10-14T01:45:55.830Z,56.17
2022-10-14T01:48:26.354Z,56.06
2022-10-14T01:50:52.968Z,55.95
2022-10-14T01:53:25.359Z,56.25
2022-10-14T01:55:54.206Z,56.31
2022-10-14T01:58:25.841Z,56.08
2022-10-14T02:00:53.798Z,56.05
2022-10-14T02:03:20.474Z,56.41
2022-10-14T02:05:52.668Z,56.41
2022-10-14T02:08:50.332Z,56.22
2022-10-14T02:11:18.233Z,56.16
2022-10-14T02:14:12.998Z,56.19
2022-10-14T02:16:56.055Z,56.40
2022-10-14T02:19:59.868Z,56.61
2022-10-14T02:22:31.763Z,56.43
2022-10-14T02:25:13.503Z,56.16
2022-10-14T02:27:43.215Z,56.50
2022-10-14T02:30:11.346Z,56.24
2022-10-14T02:32:39.032Z,56.51
2022-10-14T02:35:06.930Z,56.53
2022-10-14T02:37:33.980Z,56.12
2022-10-14T02:40:07.513Z,56.52
2022-10-14T02:42:34.776Z,56.12
2022-10-14T02:45:05.072Z,56.21
2022-10-14T02:47:31.880Z,56.54
2022-10-14T02:49:58.559Z,56.58
2022-10-14T02:52:25.303Z,56.09
2022-10-14T02:54:53.084Z,56.44
2022-10-14T02:57:19.795Z,56.17
2022-10-14T02:59:48.348Z,56.17
2022-10-14T03:02:15.151Z,56.47
2022-10-14T03:04:42.123Z,56.50
2022-10-14T03:07:09.695Z,56.21
2022-10-14T03:09:42.271Z,56.40
2022-10-14T03:12:10.184Z,56.35
2022-10-14T03:14:37.185Z,56.26
2022-10-14T03:17:05.672Z,55.82
2022-10-14T03:19:33.907Z,55.94
2022-10-14T03:22:00.877Z,56.20
2022-10-14T03:24:27.583Z,55.87
2022-10-14T03:27:16.761Z,56.08
2022-10-14T03:29:46.395Z,55.85
2022-10-14T03:32:19.299Z,56.11
2022-10-14T03:35:06.724Z,55.58
2022-10-14T03:37:33.611Z,55.92
2022-10-14T03:40:00.672Z,55.87
2022-10-14T03:42:27.558Z,55.69
2022-10-14T03:44:55.119Z,55.84
2022-10-14T03:47:26.247Z,55.93
2022-10-14T03:49:56.351Z,55.51
2022-10-14T03:52:37.664Z,55.73
2022-10-14T03:55:14.875Z,55.77
2022-10-14T03:57:43.399Z,55.80
2022-10-14T04:00:11.355Z,55.79
2022-10-14T04:02:41.190Z,55.63
2022-10-14T04:05:18.921Z,55.66
2022-10-14T04:07:48.432Z,55.56
2022-10-14T04:10:15.256Z,55.40
2022-10-14T04:12:48.468Z,55.42
2022-10-14T04:15:31.169Z,55.31
2022-10-14T04:18:08.302Z,55.73
2022-10-14T04:20:37.732Z,55.26
2022-10-14T04:23:05.304Z,55.57
2022-10-14T04:25:34.278Z,55.53
2022-10-14T04:28:03.647Z,55.43
2022-10-14T04:30:43.144Z,55.28
2022-10-14T04:33:16.199Z,55.64
2022-10-14T04:35:43.000Z,55.49
2022-10-14T04:38:19.652Z,55.72
2022-10-14T04:40:53.544Z,55.23
2022-10-14T04:43:21.005Z,55.28
2022-10-14T04:45:48.144Z,55.59
2022-10-14T04:48:22.379Z,55.67
2022-10-14T04:50:53.529Z,55.34
2022-10-14T04:53:55.588Z,55.28
2022-10-14T04:56:32.883Z,55.58
2022-10-14T04:59:02.236Z,55.25
2022-10-14T05:02:07.435Z,55.43
2022-10-14T05:04:47.049Z,55.53
2022-10-14T05:07:14.933Z,55.71
2022-10-14T05:09:46.251Z,55.68
2022-10-14T05:12:24.619Z,55.53
2022-10-14T05:14:56.817Z,55.57
2022-10-14T05:17:30.821Z,55.65
2022-10-14T05:19:57.853Z,55.83
2022-10-14T05:22:26.806Z,55.49
2022-10-14T05:24:53.689Z,55.49
2022-10-14T05:27:20.536Z,55.79
2022-10-14T05:29:48.888Z,55.41
2022-10-14T05:32:16.544Z,55.59
2022-10-14T05:34:48.536Z,55.71
2022-10-14T05:37:27.549Z,55.73
2022-10-14T05:39:55.635Z,55.48
2022-10-14T05:42:25.895Z,55.78
2022-10-14T05:44:55.795Z,55.29
2022-10-14T05:47:24.004Z,55.63
2022-10-14T05:49:56.460Z,55.68
2022-10-14T05:52:24.374Z,55.72
2022-10-14T05:54:51.806Z,55.52
2022-10-14T05:57:23.089Z,55.74
2022-10-14T05:59:49.824Z,55.56
2022-10-14T06:02:16.660Z,55.68
2022-10-14T06:04:45.463Z,56.00
2022-10-14T06:07:13.381Z,55.97
2022-10-14T06:09:40.593Z,56.28
2022-10-14T06:12:09.812Z,55.93
2022-10-14T06:14:38.638Z,56.43
2022-10-14T06:17:06.271Z,56.44
2022-10-14T06:19:35.620Z,56.14
2022-10-14T06:22:02.407Z,56.27
2022-10-14T06:24:29.478Z,56.68
2022-10-14T06:26:57.391Z,56.71
2022-10-14T06:29:26.418Z,57.23
2022-10-14T06:31:53.207Z,57.29
2022-10-14T06:34:23.061Z,57.08
2022-10-14T06:36:49.906Z,57.04
2022-10-14T06:39:16.579Z,57.73
2022-10-14T06:41:44.520Z,57.72
2022-10-14T06:44:18.822Z,57.63
2022-10-14T06:46:45.532Z,57.64
2022-10-14T06:49:12.188Z,57.43
2022-10-14T06:51:39.803Z,57.55
2022-10-14T06:54:08.087Z,57.64
2022-10-14T06:56:35.016Z,57.81
2022-10-14T06:59:01.766Z,57.97
2022-10-14T07:01:28.672Z,58.07
2022-10-14T07:03:56.747Z,58.10
2022-10-14T07:06:24.039Z,58.10
2022-10-14T07:08:50.664Z,58.27
2022-10-14T07:11:17.391Z,58.55
2022-10-14T07:13:46.151Z,58.09
2022-10-14T07:16:13.003Z,58.41
2022-10-14T07:18:40.567Z,58.65
2022-10-14T07:21:08.918Z,58.38
2022-10-14T07:23:35.557Z,58.42
2022-10-14T07:26:02.648Z,58.78
2022-10-14T07:28:29.592Z,58.52
2022-10-14T07:31:09.905Z,58.96
2022-10-14T07:36:12.323Z,58.77
2022-10-14T07:38:39.140Z,58.94
2022-10-14T07:41:16.940Z,59.04
2022-10-14T07:43:53.049Z,58.74
2022-10-14T07:46:33.068Z,58.83
2022-10-14T07:49:05.873Z,58.81
2022-10-14T07:51:33.724Z,59.03
2022-10-14T07:54:01.910Z,59.01
2022-10-14T07:56:28.950Z,59.25
2022-10-14T07:58:55.687Z,59.10
2022-10-14T08:01:24.291Z,59.29
2022-10-14T08:03:52.036Z,58.73
2022-10-14T08:06:18.987Z,58.79
2022-10-14T08:08:45.686Z,59.02
2022-10-14T08:11:15.635Z,58.73
2022-10-14T08:13:45.274Z,58.90
2022-10-14T08:16:20.326Z,59.03
2022-10-14T08:18:47.724Z,58.93
2022-10-14T08:21:15.069Z,59.14
2022-10-14T08:23:41.977Z,58.76
2022-10-14T08:26:38.357Z,58.67
2022-10-14T08:29:10.836Z,59.05
2022-10-14T08:31:38.062Z,58.64
2022-10-14T08:34:04.780Z,58.60
2022-10-14T08:36:31.678Z,58.63
2022-10-14T08:38:58.723Z,58.58
2022-10-14T08:41:36.419Z,58.95
2022-10-14T08:44:41.906Z,59.15
2022-10-14T08:47:14.154Z,58.88
2022-10-14T08:49:43.449Z,58.84
2022-10-14T08:52:37.778Z,59.15
2022-10-14T08:55:34.005Z,59.00
2022-10-14T08:58:08.963Z,58.78
2022-10-14T09:00:41.259Z,59.09
2022-10-14T09:03:16.961Z,58.96
2022-10-14T09:05:43.859Z,58.92
2022-10-14T09:08:15.240Z,58.83
2022-10-14T09:10:42.899Z,59.23
2022-10-14T09:13:19.136Z,58.84
2022-10-14T09:15:48.687Z,58.97
2022-10-14T09:18:15.389Z,58.84
2022-10-14T09:20:42.328Z,58.79
2022-10-14T09:23:20.606Z,58.96
2022-10-14T09:25:54.796Z,58.85
2022-10-14T09:28:36.456Z,58.81
2022-10-14T09:31:04.570Z,58.60
2022-10-14T09:33:31.427Z,58.78
2022-10-14T09:38:26.355Z,58.42
2022-10-14T09:40:58.988Z,58.32
2022-10-14T09:43:28.949Z,58.09
2022-10-14T09:45:57.000Z,57.79
2022-10-14T09:48:26.642Z,58.14
2022-10-14T09:50:55.842Z,57.81
2022-10-14T09:53:31.718Z,58.09
2022-10-14T09:56:04.075Z,57.65
2022-10-14T09:58:53.713Z,57.65
2022-10-14T10:01:22.687Z,56.74
2022-10-14T10:03:51.454Z,57.09
2022-10-14T10:06:29.740Z,57.05
2022-10-14T10:09:00.103Z,56.77
2022-10-14T10:11:28.258Z,56.93
2022-10-14T10:13:55.486Z,57.08
2022-10-14T10:16:23.864Z,57.09
2022-10-14T10:18:52.487Z,56.94
2022-10-14T10:21:26.501Z,57.01
2022-10-14T10:24:03.687Z,57.39
2022-10-14T10:26:33.462Z,57.00
2022-10-14T10:29:02.953Z,57.29
2022-10-14T10:31:37.782Z,56.83
2022-10-14T10:34:16.699Z,57.48
2022-10-14T10:36:48.271Z,57.68
2022-10-14T10:39:24.634Z,57.30
2022-10-14T10:42:27.103Z,57.59
2022-10-14T10:45:16.131Z,57.82
2022-10-14T10:48:00.168Z,58.12
2022-10-14T10:51:11.852Z,58.04
2022-10-14T10:54:02.898Z,58.40
2022-10-14T10:56:49.429Z,58.55
2022-10-14T10:59:37.265Z,58.21
2022-10-14T11:02:27.466Z,58.53
2022-10-14T11:05:13.149Z,58.10
2022-10-14T11:08:04.399Z,58.41
2022-10-14T11:11:02.106Z,58.92
2022-10-14T11:13:38.531Z,58.83
2022-10-14T11:16:10.761Z,59.22
2022-10-14T11:18:47.596Z,59.22
2022-10-14T11:21:22.081Z,59.45
2022-10-14T11:24:00.142Z,59.42
2022-10-14T11:26:57.508Z,59.67
2022-10-14T11:29:48.744Z,59.24
2022-10-14T11:32:18.338Z,59.77
2022-10-14T11:35:09.593Z,59.51
2022-10-14T11:37:51.340Z,59.95
2022-10-14T11:40:29.013Z,59.53
2022-10-14T11:43:26.651Z,59.82
2022-10-14T11:45:58.470Z,59.39
2022-10-14T11:48:43.798Z,59.49
2022-10-14T11:51:25.192Z,59.33
2022-10-14T11:53:58.969Z,59.78
2022-10-14T11:56:29.703Z,59.60
2022-10-14T11:58:59.635Z,59.75
2022-10-14T12:01:34.188Z,59.71
2022-10-14T12:04:10.420Z,59.71
2022-10-14T12:06:50.051Z,59.85
2022-10-14T12:09:32.181Z,59.31
2022-10-14T12:12:04.284Z,59.34
2022-10-14T12:14:37.095Z,59.64
2022-10-14T12:17:35.338Z,59.73
2022-10-14T12:20:16.862Z,59.83
2022-10-14T12:22:44.388Z,59.36
2022-10-14T12:25:17.258Z,59.67
2022-10-14T12:27:44.181Z,59.35
2022-10-14T12:30:32.938Z,59.46
2022-10-14T12:33:09.463Z,59.97
2022-10-14T12:35:59.991Z,59.96
2022-10-14T12:38:29.123Z,59.96
2022-10-14T12:41:36.140Z,60.45
2022-10-14T12:44:04.311Z,60.26
2022-10-14T12:46:31.507Z,59.76
2022-10-14T12:49:00.450Z,60.01
2022-10-14T12:51:28.218Z,59.87
2022-10-14T12:54:00.129Z,60.12
2022-10-14T12:56:32.007Z,60.32
2022-10-14T12:59:01.354Z,60.46
2022-10-14T13:01:31.036Z,60.26
2022-10-14T13:04:19.940Z,59.68
2022-10-14T13:07:35.699Z,60.08
2022-10-14T13:10:45.979Z,59.96
2022-10-14T13:13:31.895Z,59.69
2022-10-14T13:16:01.445Z,59.78
2022-10-14T13:18:31.596Z,59.78
2022-10-14T13:20:58.457Z,60.32
2022-10-14T13:23:30.438Z,60.06
2022-10-14T13:26:15.953Z,60.21
2022-10-14T13:28:51.815Z,60.38
2022-10-14T13:31:43.478Z,59.97
2022-10-14T13:34:47.922Z,60.42
2022-10-14T13:37:35.185Z,60.67
2022-10-14T13:42:55.548Z,60.10
2022-10-14T13:45:28.361Z,60.06
2022-10-14T13:47:55.179Z,60.20
2022-10-14T13:50:24.219Z,59.79
2022-10-14T13:52:59.487Z,60.19
2022-10-14T13:55:28.447Z,59.74
2022-10-14T13:58:18.540Z,60.16
2022-10-14T14:00:49.895Z,59.94
2022-10-14T14:03:25.817Z,59.77
2022-10-14T14:05:53.529Z,60.10
2022-10-14T14:08:40.561Z,59.83
2022-10-14T14:11:17.211Z,59.80
2022-10-14T14:14:05.023Z,59.82
2022-10-14T14:16:41.184Z,59.79
2022-10-14T14:19:30.776Z,60.04
2022-10-14T14:22:27.260Z,59.99
2022-10-14T14:25:38.146Z,59.41
2022-10-14T14:28:13.575Z,59.40
2022-10-14T14:30:42.580Z,59.18
2022-10-14T14:33:16.051Z,59.41
2022-10-14T14:36:22.266Z,59.36
2022-10-14T14:39:01.128Z,59.22
2022-10-14T14:41:30.059Z,59.14
2022-10-14T14:44:20.918Z,59.42
2022-10-14T14:46:45.594Z,59.22
2022-10-14T14:49:16.532Z,59.53
2022-10-14T14:51:44.023Z,59.29
2022-10-14T14:54:17.592Z,59.49
2022-10-14T14:56:50.860Z,59.66
2022-10-14T14:59:28.576Z,59.85
2022-10-14T15:01:57.058Z,59.61
2022-10-14T15:04:28.688Z,59.51
2022-10-14T15:07:21.122Z,59.85
2022-10-14T15:09:53.841Z,59.51
2022-10-14T15:12:30.755Z,59.73
2022-10-14T15:15:05.689Z,59.95
2022-10-14T15:17:40.667Z,59.70
2022-10-14T15:20:07.398Z,59.43
2022-10-14T15:22:38.995Z,59.52
2022-10-14T15:25:25.318Z,59.95
2022-10-14T15:27:53.521Z,59.70
2022-10-14T15:30:23.391Z,59.57
2022-10-14T15:32:52.198Z,59.88
2022-10-14T15:35:20.914Z,60.11
2022-10-14T15:37:49.345Z,59.77
2022-10-14T15:40:19.185Z,60.08
2022-10-14T15:42:47.155Z,60.06
2022-10-14T15:45:14.395Z,60.52
2022-10-14T15:47:41.293Z,60.52
2022-10-14T15:50:19.928Z,60.13
2022-10-14T15:52:53.867Z,60.45
2022-10-14T15:55:26.009Z,60.16
2022-10-14T15:57:53.056Z,60.47
2022-10-14T16:00:21.412Z,60.20
2022-10-14T16:02:51.071Z,60.58
2022-10-14T16:05:20.380Z,60.41
2022-10-14T16:07:48.443Z,60.64
2022-10-14T16:10:20.411Z,60.41
2022-10-14T16:12:47.209Z,61.01
2022-10-14T16:15:27.276Z,61.38
2022-10-14T16:17:54.163Z,61.34
2022-10-14T16:20:21.499Z,61.53
2022-10-14T16:22:48.623Z,61.47
2022-10-14T16:25:33.643Z,61.68
2022-10-14T16:28:00.676Z,61.42
2022-10-14T16:30:28.138Z,61.95
2022-10-14T16:32:55.826Z,61.55
2022-10-14T16:35:22.538Z,62.19
2022-10-14T16:37:49.360Z,62.28
2022-10-14T16:40:16.204Z,61.86
2022-10-14T16:42:42.926Z,61.89
2022-10-14T16:45:10.099Z,62.16
2022-10-14T16:47:38.136Z,62.68
2022-10-14T16:50:06.958Z,62.65
2022-10-14T16:52:54.510Z,62.21
2022-10-14T16:55:22.563Z,62.33
2022-10-14T16:57:49.408Z,62.41
2022-10-14T17:02:48.514Z,61.92
2022-10-14T17:05:15.577Z,62.19
2022-10-14T17:07:43.396Z,62.17
2022-10-14T17:10:10.823Z,62.00
2022-10-14T17:12:38.013Z,61.98
2022-10-14T17:15:05.719Z,61.88
2022-10-14T17:17:32.719Z,61.83
2022-10-14T17:19:59.423Z,61.73
2022-10-14T17:22:27.031Z,61.81
2022-10-14T17:24:54.943Z,61.78
2022-10-14T17:27:24.229Z,61.80
2022-10-14T17:29:52.019Z,61.50
2022-10-14T17:32:18.914Z,61.16
2022-10-14T17:34:45.920Z,61.25
2022-10-14T17:37:12.681Z,61.63
2022-10-14T17:39:39.437Z,61.35
2022-10-14T17:42:06.130Z,61.54
2022-10-14T17:44:33.352Z,61.42
2022-10-14T17:47:01.347Z,61.50
2022-10-14T17:49:31.104Z,61.47
2022-10-14T17:52:02.164Z,61.40
2022-10-14T17:54:32.100Z,60.90
2022-10-14T17:56:58.771Z,61.04
2022-10-14T17:59:25.527Z,60.99
2022-10-14T18:02:07.562Z,60.94
2022-10-14T18:04:34.467Z,61.19
2022-10-14T18:07:01.580Z,61.13
2022-10-14T18:09:28.423Z,60.76
2022-10-14T18:12:10.797Z,60.87
2022-10-14T18:14:38.668Z,60.64
2022-10-14T18:17:05.742Z,60.78
2022-10-14T18:19:32.897Z,60.71
2022-10-14T18:22:00.400Z,61.10
2022-10-14T18:24:27.235Z,60.99
2022-10-14T18:26:53.971Z,60.98
2022-10-14T18:29:20.945Z,60.51
2022-10-14T18:31:49.506Z,60.52
2022-10-14T18:34:16.395Z,60.87
2022-10-14T18:36:43.052Z,60.85
2022-10-14T18:39:13.128Z,60.82
2022-10-14T18:41:39.900Z,60.66
2022-10-14T18:44:06.795Z,60.37
2022-10-14T18:46:35.679Z,60.79
2022-10-14T18:49:04.313Z,60.26
2022-10-14T18:51:34.915Z,60.43
2022-10-14T18:54:07.526Z,60.36
2022-10-14T18:56:38.216Z,60.31
2022-10-14T18:59:09.011Z,60.51
2022-10-14T19:01:37.291Z,60.60
2022-10-14T19:04:06.304Z,60.09
2022-10-14T19:06:34.204Z,60.60
2022-10-14T19:09:01.864Z,60.55
2022-10-14T19:11:30.686Z,60.54
2022-10-14T19:13:59.153Z,60.34
2022-10-14T19:16:28.227Z,60.29
2022-10-14T19:18:56.806Z,59.99
2022-10-14T19:21:26.774Z,60.45
2022-10-14T19:23:53.561Z,60.00
2022-10-14T19:26:22.521Z,59.92
2022-10-14T19:28:49.986Z,59.97
2022-10-14T19:31:18.852Z,60.11
2022-10-14T19:33:46.193Z,60.09
2022-10-14T19:36:15.417Z,60.04
2022-10-14T19:38:58.016Z,59.92
2022-10-14T19:41:26.346Z,60.01
2022-10-14T19:43:53.780Z,60.04
2022-10-14T19:46:23.267Z,59.98
2022-10-14T19:48:50.065Z,60.24
2022-10-14T19:51:18.195Z,60.16
2022-10-14T19:53:45.293Z,59.78
2022-10-14T19:56:13.233Z,60.23
2022-10-14T19:58:43.889Z,59.90
2022-10-14T20:01:17.042Z,60.04
2022-10-14T20:03:44.251Z,60.15
2022-10-14T20:06:12.455Z,59.99
2022-10-14T20:08:39.551Z,60.32
2022-10-14T20:11:08.534Z,60.31
2022-10-14T20:13:35.476Z,60.30
2022-10-14T20:16:02.545Z,60.19
2022-10-14T20:18:29.884Z,60.33
2022-10-14T20:20:56.942Z,60.31
2022-10-14T20:23:24.800Z,60.06
2022-10-14T20:25:51.691Z,60.11
2022-10-14T20:28:21.474Z,60.07
2022-10-14T20:30:48.397Z,59.83
2022-10-14T20:33:15.085Z,59.75
2022-10-14T20:35:41.770Z,59.73
2022-10-14T20:38:08.483Z,60.12
2022-10-14T20:40:36.682Z,60.21
2022-10-14T20:43:03.918Z,60.14
2022-10-14T20:45:32.344Z,60.19
2022-10-14T20:48:00.424Z,60.28
2022-10-14T20:50:27.554Z,59.60
2022-10-14T20:52:54.897Z,59.63
2022-10-14T20:55:21.720Z,59.79
2022-10-14T20:57:48.452Z,60.23
2022-10-14T21:00:15.770Z,59.99
2022-10-14T21:05:10.060Z,59.95
2022-10-14T21:07:36.747Z,59.91
2022-10-14T21:10:03.791Z,60.13
2022-10-14T21:12:30.583Z,59.82
2022-10-14T21:14:57.296Z,60.18
2022-10-14T21:17:24.102Z,60.26
2022-10-14T21:19:50.867Z,59.62
2022-10-14T21:22:17.512Z,59.77
2022-10-14T21:24:44.303Z,59.91
2022-10-14T21:27:10.971Z,59.97
2022-10-14T21:29:37.714Z,60.28
2022-10-14T21:32:04.639Z,60.35
2022-10-14T21:34:31.611Z,60.01
2022-10-14T21:36:58.419Z,59.84
2022-10-14T21:39:25.161Z,60.23
2022-10-14T21:41:52.111Z,59.90
2022-10-14T21:44:20.376Z,60.01
2022-10-14T21:46:47.821Z,60.41
2022-10-14T21:49:15.273Z,59.83
2022-10-14T21:51:41.961Z,60.40
2022-10-14T21:54:12.219Z,60.17
2022-10-14T21:56:39.405Z,60.10
2022-10-14T21:59:06.779Z,60.53
2022-10-14T22:01:34.020Z,60.32
2022-10-14T22:04:05.560Z,60.21
2022-10-14T22:06:34.070Z,60.10
2022-10-14T22:09:02.168Z,60.01
2022-10-14T22:11:34.826Z,60.34
2022-10-14T22:14:03.308Z,60.39
2022-10-14T22:16:30.186Z,60.01
2022-10-14T22:18:59.689Z,60.32
2022-10-14T22:21:28.098Z,60.02
2022-10-14T22:23:54.911Z,60.01
2022-10-14T22:26:23.365Z,60.04
2022-10-14T22:28:50.955Z,60.07
2022-10-14T22:31:20.122Z,59.97
2022-10-14T22:33:48.174Z,59.97
2022-10-14T22:36:19.408Z,60.00
2022-10-14T22:38:50.106Z,59.94
2022-10-14T22:41:17.901Z,60.01
2022-10-14T22:43:55.591Z,60.59
2022-10-14T22:46:24.767Z,60.48
2022-10-14T22:48:56.831Z,60.39
2022-10-14T22:53:53.916Z,60.16
2022-10-14T22:56:22.711Z,60.09
2022-10-14T22:58:57.280Z,60.06
2022-10-14T23:01:24.222Z,60.32
2022-10-14T23:03:51.061Z,60.51
2022-10-14T23:06:17.753Z,60.49
2022-10-14T23:08:44.745Z,60.23
2022-10-14T23:11:19.737Z,60.15
2022-10-14T23:13:46.911Z,60.61
2022-10-14T23:16:17.798Z,60.31
2022-10-14T23:18:45.813Z,60.05
2022-10-14T23:21:19.361Z,60.22
2022-10-14T23:23:47.716Z,60.25
2022-10-14T23:26:21.188Z,60.28
2022-10-14T23:28:49.550Z,60.54
2022-10-14T23:31:18.455Z,60.30
2022-10-14T23:33:45.238Z,60.37
2022-10-14T23:36:13.646Z,60.78
2022-10-14T23:38:40.823Z,60.59
2022-10-14T23:41:08.706Z,60.30
2022-10-14T23:43:35.570Z,60.58
2022-10-14T23:46:02.587Z,60.25
2022-10-14T23:48:29.499Z,60.73
2022-10-14T23:50:56.171Z,60.73
2022-10-14T23:53:23.046Z,60.21
2022-10-14T23:55:49.784Z,60.43
2022-10-14T23:58:16.629Z,60.79
